createdAt,value
2022-08-26T00:00:02.681Z,5.7
2022-08-26T00:02:03.244Z,5.5
2022-08-26T00:04:02.332Z,5.5
2022-08-26T00:06:02.265Z,5.8
2022-08-26T00:08:02.387Z,5.7
2022-08-26T00:10:02.185Z,5.3
2022-08-26T00:12:02.513Z,5.4
2022-08-26T00:14:02.302Z,5.3
2022-08-26T00:16:02.452Z,5.4
2022-08-26T00:18:02.724Z,5.2
2022-08-26T00:20:02.552Z,5.5
2022-08-26T00:22:02.110Z,5.1
2022-08-26T00:24:02.534Z,5.4
2022-08-26T00:26:05.011Z,5.4
2022-08-26T00:28:02.475Z,5.2
2022-08-26T00:30:04.941Z,5.1
2022-08-26T00:32:02.431Z,5.3
2022-08-26T00:34:02.131Z,5.1
2022-08-26T00:36:03.232Z,4.9
2022-08-26T00:38:03.629Z,5.0
2022-08-26T00:40:05.220Z,5.2
2022-08-26T00:42:02.968Z,5.2
2022-08-26T00:44:02.242Z,5.3
2022-08-26T00:46:10.642Z,5.3
2022-08-26T00:48:05.427Z,5.1
2022-08-26T00:50:06.554Z,4.9
2022-08-26T00:52:06.864Z,5.0
2022-08-26T00:54:10.589Z,5.3
2022-08-26T00:56:07.431Z,5.4
2022-08-26T00:58:03.244Z,5.1
2022-08-26T01:00:07.729Z,5.4
2022-08-26T01:02:03.587Z,5.2
2022-08-26T01:04:03.184Z,5.1
2022-08-26T01:06:03.602Z,5.3
2022-08-26T01:08:02.196Z,5.1
2022-08-26T01:10:07.205Z,5.1
2022-08-26T01:12:04.173Z,4.9
2022-08-26T01:14:04.994Z,5.2
2022-08-26T01:16:05.244Z,5.4
2022-08-26T01:18:03.852Z,5.3
2022-08-26T01:20:08.946Z,5.4
2022-08-26T01:22:08.145Z,5.0
2022-08-26T01:24:03.436Z,5.2
2022-08-26T01:26:08.536Z,5.2
2022-08-26T01:28:14.386Z,5.5
2022-08-26T01:30:05.018Z,5.3
2022-08-26T01:32:05.112Z,5.2
2022-08-26T01:34:06.950Z,4.9
2022-08-26T01:36:03.189Z,5.1
2022-08-26T01:38:02.346Z,5.5
2022-08-26T01:40:05.714Z,5.3
2022-08-26T01:42:05.902Z,4.9
2022-08-26T01:44:05.103Z,5.1
2022-08-26T01:46:02.942Z,4.9
2022-08-26T01:48:07.435Z,5.2
2022-08-26T01:50:08.091Z,5.2
2022-08-26T01:52:03.278Z,5.0
2022-08-26T01:54:02.446Z,4.9
2022-08-26T01:56:04.624Z,5.1
2022-08-26T01:58:08.179Z,5.3
2022-08-26T02:00:09.860Z,4.9
2022-08-26T02:02:02.542Z,5.1
2022-08-26T02:04:13.270Z,5.3
2022-08-26T02:06:09.329Z,4.8
2022-08-26T02:08:04.002Z,5.5
2022-08-26T02:10:04.075Z,5.0
2022-08-26T02:12:02.557Z,5.1
2022-08-26T02:14:05.798Z,5.2
2022-08-26T02:16:03.525Z,5.2
2022-08-26T02:18:05.178Z,5.2
2022-08-26T02:20:03.942Z,5.0
2022-08-26T02:22:11.042Z,5.2
2022-08-26T02:24:08.911Z,5.2
2022-08-26T02:26:09.093Z,4.9
2022-08-26T02:28:02.421Z,5.0
2022-08-26T02:30:08.913Z,5.3
2022-08-26T02:32:02.944Z,4.9
2022-08-26T02:34:09.455Z,4.9
2022-08-26T02:36:02.316Z,5.2
2022-08-26T02:38:10.286Z,5.0
2022-08-26T02:40:07.414Z,5.2
2022-08-26T02:42:02.526Z,5.3
2022-08-26T02:44:02.176Z,5.2
2022-08-26T02:46:02.570Z,4.9
2022-08-26T02:48:10.234Z,5.4
2022-08-26T02:50:03.038Z,5.2
2022-08-26T02:52:02.457Z,5.1
2022-08-26T02:54:02.831Z,5.2
2022-08-26T02:56:02.298Z,5.1
2022-08-26T02:58:02.974Z,4.9
2022-08-26T03:00:02.584Z,5.1
2022-08-26T03:02:03.433Z,5.0
2022-08-26T03:04:04.699Z,5.0
2022-08-26T03:06:02.164Z,5.2
2022-08-26T03:08:02.610Z,5.3
2022-08-26T03:10:06.886Z,5.2
2022-08-26T03:12:03.413Z,5.3
2022-08-26T03:14:03.506Z,5.3
2022-08-26T03:16:02.921Z,5.0
2022-08-26T03:18:02.439Z,5.2
2022-08-26T03:20:02.438Z,5.0
2022-08-26T03:22:03.482Z,4.9
2022-08-26T03:24:02.330Z,4.9
2022-08-26T03:26:03.744Z,5.1
2022-08-26T03:28:03.206Z,5.3
2022-08-26T03:30:12.326Z,5.4
2022-08-26T03:32:03.645Z,5.0
2022-08-26T03:34:03.758Z,5.1
2022-08-26T03:36:03.649Z,4.9
2022-08-26T03:38:04.347Z,4.9
2022-08-26T03:40:04.289Z,5.0
2022-08-26T03:42:02.155Z,4.9
2022-08-26T03:44:02.234Z,4.8
2022-08-26T03:46:05.941Z,4.8
2022-08-26T03:48:03.245Z,5.1
2022-08-26T03:50:02.343Z,5.2
2022-08-26T03:52:03.613Z,4.8
2022-08-26T03:54:02.634Z,4.9
2022-08-26T03:56:02.742Z,4.8
2022-08-26T03:58:02.570Z,5.4
2022-08-26T04:00:02.424Z,5.1
2022-08-26T04:02:02.404Z,5.1
2022-08-26T04:04:03.245Z,5.0
2022-08-26T04:06:02.168Z,5.0
2022-08-26T04:08:02.826Z,4.7
2022-08-26T04:10:03.986Z,5.0
2022-08-26T04:12:03.246Z,4.8
2022-08-26T04:14:06.230Z,4.9
2022-08-26T04:16:03.157Z,4.9
2022-08-26T04:18:02.826Z,5.0
2022-08-26T04:20:03.698Z,4.7
2022-08-26T04:22:02.480Z,4.8
2022-08-26T04:24:03.577Z,4.8
2022-08-26T04:26:02.762Z,4.9
2022-08-26T04:28:02.329Z,5.1
2022-08-26T04:30:02.342Z,4.9
2022-08-26T04:32:02.647Z,6.1
2022-08-26T04:34:03.830Z,6.9
2022-08-26T04:36:03.836Z,8.0
2022-08-26T04:38:03.278Z,7.4
2022-08-26T04:40:02.546Z,6.4
2022-08-26T04:42:02.281Z,6.0
2022-08-26T04:44:05.950Z,6.1
2022-08-26T04:46:04.859Z,5.2
2022-08-26T04:48:02.299Z,5.0
2022-08-26T04:50:02.738Z,4.5
2022-08-26T04:52:02.318Z,4.9
2022-08-26T04:54:03.280Z,4.7
2022-08-26T04:56:02.329Z,4.7
2022-08-26T04:58:02.442Z,4.8
2022-08-26T05:00:02.389Z,5.0
2022-08-26T05:02:03.348Z,4.8
2022-08-26T05:04:03.286Z,4.9
2022-08-26T05:06:05.428Z,4.6
2022-08-26T05:08:03.396Z,4.7
2022-08-26T05:10:03.448Z,4.6
2022-08-26T05:12:03.000Z,4.1
2022-08-26T05:14:03.070Z,4.8
2022-08-26T05:16:06.107Z,4.1
2022-08-26T05:18:03.512Z,4.3
2022-08-26T05:20:02.326Z,4.5
2022-08-26T05:22:02.166Z,4.1
2022-08-26T05:24:02.214Z,4.2
2022-08-26T05:26:02.463Z,4.3
2022-08-26T05:28:02.137Z,4.2
2022-08-26T05:30:02.474Z,4.4
2022-08-26T05:32:03.227Z,4.5
2022-08-26T05:34:04.162Z,3.9
2022-08-26T05:36:08.800Z,4.1
2022-08-26T05:38:07.307Z,4.0
2022-08-26T05:40:04.372Z,4.4
2022-08-26T05:42:02.858Z,4.4
2022-08-26T05:44:05.415Z,4.2
2022-08-26T05:46:07.340Z,4.3
2022-08-26T05:48:02.187Z,4.0
2022-08-26T05:50:05.223Z,4.0
2022-08-26T05:52:02.579Z,4.2
2022-08-26T05:54:03.739Z,4.0
2022-08-26T05:56:04.691Z,4.3
2022-08-26T05:58:02.708Z,4.3
2022-08-26T06:00:02.421Z,4.2
2022-08-26T06:02:03.034Z,4.3
2022-08-26T06:04:02.774Z,4.5
2022-08-26T06:06:04.173Z,4.5
2022-08-26T06:08:11.567Z,4.5
2022-08-26T06:10:30.531Z,4.5
2022-08-26T06:12:02.217Z,4.5
2022-08-26T06:14:06.574Z,4.5
2022-08-26T06:16:05.478Z,4.6
2022-08-26T06:18:02.145Z,4.8
2022-08-26T06:20:02.200Z,4.6
2022-08-26T06:22:11.643Z,4.7
2022-08-26T06:24:15.025Z,4.3
2022-08-26T06:26:03.344Z,4.4
2022-08-26T06:28:02.296Z,4.6
2022-08-26T06:30:02.730Z,4.7
2022-08-26T06:32:02.740Z,4.8
2022-08-26T06:34:07.304Z,4.4
2022-08-26T06:36:03.542Z,4.5
2022-08-26T06:38:02.951Z,4.5
2022-08-26T06:40:02.205Z,4.4
2022-08-26T06:42:03.199Z,4.3
2022-08-26T06:44:03.973Z,4.4
2022-08-26T06:46:04.801Z,4.6
2022-08-26T06:48:02.204Z,4.4
2022-08-26T06:50:03.221Z,4.9
2022-08-26T06:52:02.699Z,4.9
2022-08-26T06:54:04.204Z,5.1
2022-08-26T06:56:03.620Z,4.5
2022-08-26T06:58:02.285Z,4.5
2022-08-26T07:00:04.330Z,5.0
2022-08-26T07:02:02.381Z,5.2
2022-08-26T07:04:07.936Z,4.7
2022-08-26T07:06:03.887Z,4.4
2022-08-26T07:08:02.646Z,4.6
2022-08-26T07:10:02.142Z,4.2
2022-08-26T07:12:03.739Z,4.2
2022-08-26T07:14:03.955Z,4.1
2022-08-26T07:16:04.351Z,4.1
2022-08-26T07:18:02.504Z,4.3
2022-08-26T07:20:02.964Z,4.2
2022-08-26T07:22:05.131Z,4.2
2022-08-26T07:24:03.250Z,4.4
2022-08-26T07:26:06.178Z,3.9
2022-08-26T07:28:02.937Z,4.1
2022-08-26T07:30:04.216Z,4.2
2022-08-26T07:32:03.479Z,4.4
2022-08-26T07:34:02.429Z,4.5
2022-08-26T07:36:04.160Z,4.1
2022-08-26T07:38:02.379Z,4.3
2022-08-26T07:40:02.432Z,3.9
2022-08-26T07:42:07.730Z,3.8
2022-08-26T07:44:02.295Z,4.4
2022-08-26T07:46:02.328Z,3.8
2022-08-26T07:48:02.151Z,3.9
2022-08-26T07:50:02.490Z,3.6
2022-08-26T07:52:03.208Z,3.7
2022-08-26T07:54:02.172Z,3.4
2022-08-26T07:56:02.330Z,3.6
2022-08-26T07:58:02.317Z,3.4
2022-08-26T08:00:04.259Z,4.0
2022-08-26T08:02:02.995Z,3.5
2022-08-26T08:04:04.264Z,3.3
2022-08-26T08:06:02.148Z,3.5
2022-08-26T08:08:26.293Z,3.0
2022-08-26T08:10:03.775Z,3.2
2022-08-26T08:12:02.209Z,3.6
2022-08-26T08:14:02.464Z,3.3
2022-08-26T08:16:02.328Z,3.5
2022-08-26T08:18:02.184Z,3.3
2022-08-26T08:20:03.914Z,3.3
2022-08-26T08:22:04.581Z,3.3
2022-08-26T08:24:02.250Z,3.3
2022-08-26T08:26:05.028Z,3.1
2022-08-26T08:28:02.296Z,3.2
2022-08-26T08:30:02.758Z,3.3
2022-08-26T08:32:03.209Z,3.2
2022-08-26T08:34:02.175Z,3.0
2022-08-26T08:36:05.743Z,3.3
2022-08-26T08:38:04.188Z,3.3
2022-08-26T08:40:02.959Z,3.0
2022-08-26T08:42:23.493Z,3.1
2022-08-26T08:44:02.593Z,3.1
2022-08-26T08:46:07.599Z,2.8
2022-08-26T08:48:07.023Z,2.8
2022-08-26T08:50:12.589Z,2.8
2022-08-26T08:52:09.447Z,2.8
2022-08-26T08:54:02.743Z,3.0
2022-08-26T08:56:10.288Z,3.1
2022-08-26T08:58:06.369Z,2.8
2022-08-26T09:00:10.645Z,2.8
2022-08-26T09:02:11.254Z,2.9
2022-08-26T09:04:17.670Z,2.9
2022-08-26T09:06:04.036Z,2.9
2022-08-26T09:08:11.089Z,3.0
2022-08-26T09:10:21.219Z,3.0
2022-08-26T09:12:04.237Z,3.0
2022-08-26T09:14:02.834Z,2.9
2022-08-26T09:16:09.892Z,2.9
2022-08-26T09:18:11.137Z,2.8
2022-08-26T09:20:10.517Z,3.0
2022-08-26T09:22:06.963Z,3.0
2022-08-26T09:24:02.523Z,2.9
2022-08-26T09:26:13.408Z,2.8
2022-08-26T09:28:02.864Z,2.8
2022-08-26T09:30:02.194Z,2.9
2022-08-26T09:32:15.703Z,3.5
2022-08-26T09:34:07.368Z,3.5
2022-08-26T09:36:14.453Z,3.2
2022-08-26T09:38:02.855Z,3.1
2022-08-26T09:40:13.677Z,3.4
2022-08-26T09:42:06.862Z,3.1
2022-08-26T09:44:14.614Z,3.0
2022-08-26T09:46:14.619Z,2.9
2022-08-26T09:48:03.709Z,2.9
2022-08-26T09:50:09.465Z,3.1
2022-08-26T09:52:08.608Z,3.3
2022-08-26T09:54:03.912Z,3.5
2022-08-26T09:56:14.437Z,3.7
2022-08-26T09:58:08.003Z,3.6
2022-08-26T10:00:02.944Z,3.6
2022-08-26T10:02:17.131Z,3.6
2022-08-26T10:04:09.810Z,3.2
2022-08-26T10:06:06.272Z,3.6
2022-08-26T10:08:21.315Z,3.8
2022-08-26T10:10:08.750Z,3.5
2022-08-26T10:12:07.325Z,3.1
2022-08-26T10:14:08.710Z,3.3
2022-08-26T10:16:11.329Z,3.3
2022-08-26T10:18:10.128Z,3.0
2022-08-26T10:20:22.483Z,3.7
2022-08-26T10:22:11.970Z,3.5
2022-08-26T10:24:03.768Z,3.7
2022-08-26T10:26:07.732Z,3.5
2022-08-26T10:28:09.635Z,3.5
2022-08-26T10:30:07.590Z,3.2
2022-08-26T10:32:09.871Z,4.2
2022-08-26T10:34:02.753Z,4.1
2022-08-26T10:36:06.734Z,3.8
2022-08-26T10:38:09.419Z,3.9
2022-08-26T10:40:07.292Z,3.5
2022-08-26T10:42:07.082Z,4.3
2022-08-26T10:44:05.331Z,4.2
2022-08-26T10:46:09.739Z,4.0
2022-08-26T10:48:06.802Z,4.8
2022-08-26T10:50:03.635Z,4.6
2022-08-26T10:52:12.265Z,4.4
2022-08-26T10:54:10.298Z,4.3
2022-08-26T10:56:15.756Z,4.4
2022-08-26T10:58:13.197Z,4.1
2022-08-26T11:00:18.206Z,4.6
2022-08-26T11:02:08.327Z,5.5
2022-08-26T11:04:13.891Z,4.4
2022-08-26T11:06:21.259Z,5.7
2022-08-26T11:08:21.193Z,5.6
2022-08-26T11:10:05.462Z,5.0
2022-08-26T11:12:06.766Z,5.6
2022-08-26T11:14:04.793Z,5.3
2022-08-26T11:16:02.504Z,5.9
2022-08-26T11:18:04.585Z,5.5
2022-08-26T11:20:09.252Z,5.5
2022-08-26T11:22:06.577Z,5.7
2022-08-26T11:24:02.436Z,5.6
2022-08-26T11:26:27.453Z,5.1
2022-08-26T11:28:04.271Z,5.4
2022-08-26T11:30:05.523Z,6.1
2022-08-26T11:32:02.642Z,5.8
2022-08-26T11:34:06.579Z,5.2
2022-08-26T11:36:11.527Z,5.2
2022-08-26T11:38:04.370Z,5.3
2022-08-26T11:40:07.032Z,5.4
2022-08-26T11:42:15.419Z,5.2
2022-08-26T11:44:06.620Z,5.5
2022-08-26T11:46:05.822Z,5.3
2022-08-26T11:48:16.183Z,5.9
2022-08-26T11:50:12.964Z,5.5
2022-08-26T11:52:13.914Z,5.0
2022-08-26T11:54:11.722Z,5.0
2022-08-26T11:56:06.761Z,5.0
2022-08-26T11:58:05.035Z,4.9
2022-08-26T12:00:06.440Z,4.9
2022-08-26T12:02:03.333Z,5.5
2022-08-26T12:04:03.669Z,5.3
2022-08-26T12:06:03.107Z,5.5
2022-08-26T12:08:08.492Z,5.3
2022-08-26T12:10:05.874Z,4.9
2022-08-26T12:12:14.170Z,5.3
2022-08-26T12:14:05.846Z,4.9
2022-08-26T12:16:02.319Z,5.0
2022-08-26T12:18:28.763Z,5.0
2022-08-26T12:20:04.029Z,5.6
2022-08-26T12:22:06.846Z,5.2
2022-08-26T12:24:03.757Z,5.8
2022-08-26T12:26:08.238Z,5.5
2022-08-26T12:28:05.799Z,4.9
2022-08-26T12:30:08.467Z,5.1
2022-08-26T12:32:13.004Z,4.5
2022-08-26T12:34:06.222Z,5.0
2022-08-26T12:36:04.463Z,4.4
2022-08-26T12:38:04.578Z,4.7
2022-08-26T12:40:21.273Z,4.9
2022-08-26T12:42:05.981Z,4.5
2022-08-26T12:44:02.963Z,4.5
2022-08-26T12:46:04.131Z,4.5
2022-08-26T12:48:09.596Z,4.5
2022-08-26T12:50:06.384Z,4.7
2022-08-26T12:52:02.371Z,4.3
2022-08-26T12:54:06.328Z,4.1
2022-08-26T12:56:13.826Z,4.3
2022-08-26T12:58:13.530Z,4.1
2022-08-26T13:00:21.280Z,4.3
2022-08-26T13:02:02.363Z,4.3
2022-08-26T13:04:02.140Z,4.4
2022-08-26T13:06:15.719Z,4.4
2022-08-26T13:08:13.978Z,4.1
2022-08-26T13:10:02.208Z,4.1
2022-08-26T13:12:02.391Z,3.6
2022-08-26T13:14:06.979Z,3.8
2022-08-26T13:16:02.738Z,3.7
2022-08-26T13:18:02.881Z,3.6
2022-08-26T13:20:04.341Z,3.1
2022-08-26T13:22:03.173Z,3.5
2022-08-26T13:24:05.032Z,3.2
2022-08-26T13:26:03.097Z,3.2
2022-08-26T13:28:02.240Z,3.0
2022-08-26T13:30:03.411Z,3.2
2022-08-26T13:32:04.243Z,2.9
2022-08-26T13:34:03.563Z,3.1
2022-08-26T13:36:02.503Z,3.3
2022-08-26T13:38:02.181Z,3.2
2022-08-26T13:40:02.487Z,3.2
2022-08-26T13:42:02.193Z,2.8
2022-08-26T13:44:02.886Z,2.8
2022-08-26T13:46:02.225Z,3.2
2022-08-26T13:48:03.086Z,2.9
2022-08-26T13:50:02.163Z,3.4
2022-08-26T13:52:03.238Z,2.9
2022-08-26T13:54:02.747Z,2.9
2022-08-26T13:56:02.488Z,3.0
2022-08-26T13:58:02.143Z,3.1
2022-08-26T14:00:03.741Z,3.2
2022-08-26T14:02:03.386Z,2.7
2022-08-26T14:04:03.336Z,2.9
2022-08-26T14:06:03.028Z,3.0
2022-08-26T14:08:02.374Z,2.9
2022-08-26T14:10:02.227Z,3.1
2022-08-26T14:12:02.849Z,3.5
2022-08-26T14:14:02.862Z,3.1
2022-08-26T14:16:05.196Z,3.1
2022-08-26T14:18:04.866Z,3.1
2022-08-26T14:20:02.508Z,3.4
2022-08-26T14:22:02.632Z,3.5
2022-08-26T14:24:03.963Z,3.2
2022-08-26T14:26:03.446Z,3.0
2022-08-26T14:28:02.400Z,3.0
2022-08-26T14:30:02.212Z,3.0
2022-08-26T14:32:10.945Z,3.1
2022-08-26T14:34:05.049Z,3.3
2022-08-26T14:36:12.617Z,3.1
2022-08-26T14:38:02.138Z,3.3
2022-08-26T14:40:02.361Z,3.1
2022-08-26T14:42:02.158Z,3.5
2022-08-26T14:44:14.837Z,3.1
2022-08-26T14:46:03.280Z,3.8
2022-08-26T14:48:02.432Z,3.5
2022-08-26T14:50:02.188Z,3.3
2022-08-26T14:52:02.661Z,3.1
2022-08-26T14:54:11.687Z,3.5
2022-08-26T14:56:02.286Z,3.1
2022-08-26T14:58:02.360Z,3.2
2022-08-26T15:00:02.541Z,3.6
2022-08-26T15:02:03.868Z,3.2
2022-08-26T15:04:02.417Z,3.2
2022-08-26T15:06:02.160Z,2.9
2022-08-26T15:08:04.158Z,3.5
2022-08-26T15:10:02.127Z,3.0
2022-08-26T15:12:04.391Z,3.3
2022-08-26T15:14:07.952Z,3.0
2022-08-26T15:16:03.046Z,3.3
2022-08-26T15:18:02.297Z,3.1
2022-08-26T15:20:02.681Z,2.9
2022-08-26T15:22:02.110Z,3.0
2022-08-26T15:24:04.479Z,3.2
2022-08-26T15:26:02.238Z,3.0
2022-08-26T15:28:02.345Z,3.3
2022-08-26T15:30:02.795Z,2.8
2022-08-26T15:32:02.166Z,2.9
2022-08-26T15:34:06.530Z,2.7
2022-08-26T15:36:04.249Z,2.9
2022-08-26T15:38:02.536Z,3.0
2022-08-26T15:40:02.431Z,2.7
2022-08-26T15:42:03.220Z,2.8
2022-08-26T15:44:02.264Z,2.9
2022-08-26T15:46:02.456Z,3.2
2022-08-26T15:48:03.031Z,2.8
2022-08-26T15:50:03.630Z,3.5
2022-08-26T15:52:05.236Z,3.7
2022-08-26T15:54:12.832Z,3.8
2022-08-26T15:56:03.095Z,3.8
2022-08-26T15:58:02.238Z,3.8
2022-08-26T16:00:03.986Z,3.6
2022-08-26T16:02:02.805Z,3.3
2022-08-26T16:04:03.788Z,3.2
2022-08-26T16:06:03.502Z,3.1
2022-08-26T16:08:03.240Z,3.4
2022-08-26T16:10:02.241Z,4.0
2022-08-26T16:12:02.484Z,3.9
2022-08-26T16:14:04.265Z,4.1
2022-08-26T16:16:02.242Z,4.5
2022-08-26T16:18:04.296Z,4.9
2022-08-26T16:20:02.375Z,4.7
2022-08-26T16:22:02.151Z,5.2
2022-08-26T16:24:04.250Z,4.9
2022-08-26T16:26:10.594Z,5.0
2022-08-26T16:28:02.318Z,4.8
2022-08-26T16:30:05.347Z,5.0
2022-08-26T16:32:08.124Z,4.9
2022-08-26T16:34:02.118Z,4.5
2022-08-26T16:36:02.565Z,4.9
2022-08-26T16:38:03.906Z,4.4
2022-08-26T16:40:02.384Z,5.1
2022-08-26T16:42:02.401Z,4.4
2022-08-26T16:44:10.949Z,4.2
2022-08-26T16:46:05.132Z,4.1
2022-08-26T16:48:06.106Z,3.9
2022-08-26T16:50:04.187Z,3.4
2022-08-26T16:52:02.269Z,3.2
2022-08-26T16:54:03.588Z,3.2
2022-08-26T16:56:02.192Z,2.9
2022-08-26T16:58:03.417Z,2.9
2022-08-26T17:00:06.882Z,2.4
2022-08-26T17:02:03.448Z,2.0
2022-08-26T17:04:02.199Z,2.1
2022-08-26T17:06:03.123Z,2.2
2022-08-26T17:08:04.258Z,2.0
2022-08-26T17:10:02.359Z,2.2
2022-08-26T17:12:02.356Z,2.2
2022-08-26T17:14:02.485Z,2.1
2022-08-26T17:16:02.372Z,1.9
2022-08-26T17:18:02.422Z,2.0
2022-08-26T17:20:06.615Z,1.9
2022-08-26T17:22:02.164Z,2.1
2022-08-26T17:24:03.260Z,2.2
2022-08-26T17:26:02.462Z,2.3
2022-08-26T17:28:02.800Z,2.0
2022-08-26T17:30:02.205Z,2.0
2022-08-26T17:32:02.966Z,2.3
2022-08-26T17:34:02.372Z,2.2
2022-08-26T17:36:03.302Z,2.1
2022-08-26T17:38:03.342Z,2.3
2022-08-26T17:40:03.961Z,2.1
2022-08-26T17:42:02.257Z,2.2
2022-08-26T17:44:02.199Z,2.3
2022-08-26T17:46:07.412Z,2.1
2022-08-26T17:48:02.680Z,2.0
2022-08-26T17:50:04.461Z,2.1
2022-08-26T17:52:03.088Z,2.2
2022-08-26T17:54:03.392Z,2.0
2022-08-26T17:56:02.190Z,2.0
2022-08-26T17:58:03.913Z,2.2
2022-08-26T18:00:02.797Z,1.8
2022-08-26T18:02:03.413Z,1.5
2022-08-26T18:04:02.357Z,1.5
2022-08-26T18:06:03.656Z,1.5
2022-08-26T18:08:02.188Z,1.4
2022-08-26T18:10:04.709Z,1.3
2022-08-26T18:12:04.213Z,1.2
2022-08-26T18:14:02.289Z,1.3
2022-08-26T18:16:05.631Z,1.2
2022-08-26T18:18:02.168Z,1.1
2022-08-26T18:20:02.311Z,1.1
2022-08-26T18:22:02.148Z,1.0
2022-08-26T18:24:14.232Z,1.0
2022-08-26T18:26:02.220Z,1.0
2022-08-26T18:28:11.662Z,1.1
2022-08-26T18:30:02.435Z,0.9
2022-08-26T18:32:02.822Z,1.0
2022-08-26T18:34:03.153Z,1.0
2022-08-26T18:36:03.926Z,1.0
2022-08-26T18:38:11.286Z,1.2
2022-08-26T18:40:02.330Z,0.9
2022-08-26T18:42:02.926Z,0.9
2022-08-26T18:44:02.221Z,0.9
2022-08-26T18:46:04.706Z,0.9
2022-08-26T18:48:04.107Z,0.9
2022-08-26T18:50:03.670Z,0.8
2022-08-26T18:52:03.027Z,0.9
2022-08-26T18:54:05.015Z,0.9
2022-08-26T18:56:02.232Z,0.8
2022-08-26T18:58:02.361Z,0.9
2022-08-26T19:00:04.863Z,0.9
2022-08-26T19:02:03.159Z,0.9
2022-08-26T19:04:04.525Z,0.9
2022-08-26T19:06:02.394Z,0.9
2022-08-26T19:08:02.387Z,1.0
2022-08-26T19:10:02.155Z,1.0
2022-08-26T19:12:05.131Z,0.9
2022-08-26T19:14:02.959Z,0.9
2022-08-26T19:16:03.021Z,1.1
2022-08-26T19:18:02.203Z,0.9
2022-08-26T19:20:03.424Z,1.0
2022-08-26T19:22:02.752Z,1.0
2022-08-26T19:24:05.828Z,1.0
2022-08-26T19:26:05.380Z,0.9
2022-08-26T19:28:02.311Z,0.9
2022-08-26T19:30:03.138Z,0.9
2022-08-26T19:32:03.924Z,1.1
2022-08-26T19:34:02.173Z,0.9
2022-08-26T19:36:12.683Z,1.0
2022-08-26T19:38:04.279Z,0.9
2022-08-26T19:40:11.876Z,1.1
2022-08-26T19:42:12.235Z,1.0
2022-08-26T19:44:12.335Z,1.1
2022-08-26T19:46:08.422Z,1.1
2022-08-26T19:48:03.254Z,0.9
2022-08-26T19:50:04.782Z,1.1
2022-08-26T19:52:05.966Z,1.1
2022-08-26T19:54:07.013Z,0.9
2022-08-26T19:56:02.168Z,0.9
2022-08-26T19:58:02.189Z,0.9
2022-08-26T20:00:09.121Z,1.0
2022-08-26T20:02:03.052Z,1.0
2022-08-26T20:04:02.393Z,1.0
2022-08-26T20:06:04.856Z,1.0
2022-08-26T20:08:03.037Z,0.9
2022-08-26T20:10:03.175Z,0.8
2022-08-26T20:12:04.709Z,1.0
2022-08-26T20:14:02.230Z,0.9
2022-08-26T20:16:03.234Z,0.9
2022-08-26T20:18:02.350Z,1.0
2022-08-26T20:20:14.722Z,1.0
2022-08-26T20:22:03.620Z,1.1
2022-08-26T20:24:05.992Z,1.0
2022-08-26T20:26:04.134Z,1.1
2022-08-26T20:28:11.785Z,1.1
2022-08-26T20:30:12.581Z,1.1
2022-08-26T20:32:12.199Z,1.0
2022-08-26T20:34:12.759Z,0.9
2022-08-26T20:36:12.928Z,1.1
2022-08-26T20:38:11.721Z,0.9
2022-08-26T20:40:13.232Z,1.1
2022-08-26T20:42:19.883Z,0.9
2022-08-26T20:44:11.721Z,1.1
2022-08-26T20:46:17.933Z,0.9
2022-08-26T20:48:12.145Z,1.0
2022-08-26T20:50:11.746Z,1.1
2022-08-26T20:52:12.656Z,1.0
2022-08-26T20:54:11.633Z,1.0
2022-08-26T20:56:14.234Z,1.0
2022-08-26T20:58:11.645Z,0.9
2022-08-26T21:00:13.526Z,1.0
2022-08-26T21:02:11.829Z,1.2
2022-08-26T21:04:15.228Z,1.1
2022-08-26T21:06:11.598Z,1.0
2022-08-26T21:08:12.163Z,1.3
2022-08-26T21:10:11.592Z,1.2
2022-08-26T21:12:12.810Z,1.2
2022-08-26T21:14:17.069Z,1.1
2022-08-26T21:16:11.690Z,1.1
2022-08-26T21:18:11.823Z,1.1
2022-08-26T21:20:11.782Z,1.1
2022-08-26T21:22:12.128Z,1.2
2022-08-26T21:24:12.132Z,1.0
2022-08-26T21:26:13.095Z,1.1
2022-08-26T21:28:11.771Z,1.2
2022-08-26T21:30:12.021Z,1.1
2022-08-26T21:32:12.503Z,1.1
2022-08-26T21:34:12.208Z,1.0
2022-08-26T21:36:12.842Z,1.1
2022-08-26T21:38:11.811Z,1.2
2022-08-26T21:40:11.677Z,1.2
2022-08-26T21:42:11.582Z,1.2
2022-08-26T21:44:11.603Z,1.1
2022-08-26T21:48:12.753Z,1.0
2022-08-26T21:50:12.537Z,1.1
2022-08-26T21:52:11.763Z,1.1
2022-08-26T21:54:14.501Z,0.9
2022-08-26T21:56:14.575Z,0.9
2022-08-26T21:58:11.675Z,1.0
2022-08-26T22:00:12.049Z,1.1
2022-08-26T22:02:11.732Z,1.2
2022-08-26T22:04:13.589Z,1.2
2022-08-26T22:06:11.653Z,1.1
2022-08-26T22:08:11.720Z,1.2
2022-08-26T22:10:11.775Z,1.2
2022-08-26T22:12:13.487Z,1.1
2022-08-26T22:14:11.738Z,1.1
2022-08-26T22:16:13.268Z,1.0
2022-08-26T22:18:12.677Z,1.2
2022-08-26T22:20:16.510Z,1.1
2022-08-26T22:22:11.582Z,1.2
2022-08-26T22:24:13.472Z,1.2
2022-08-26T22:26:12.249Z,1.3
2022-08-26T22:28:12.293Z,1.3
2022-08-26T22:30:11.869Z,1.2
2022-08-26T22:32:11.685Z,1.2
2022-08-26T22:34:11.623Z,1.0
2022-08-26T22:36:12.028Z,1.2
2022-08-26T22:38:11.840Z,1.2
2022-08-26T22:40:11.818Z,1.2
2022-08-26T22:42:11.629Z,1.1
2022-08-26T22:44:12.578Z,1.1
2022-08-26T22:46:11.663Z,1.2
2022-08-26T22:48:13.497Z,1.2
2022-08-26T22:50:12.319Z,1.2
2022-08-26T22:52:11.796Z,1.1
2022-08-26T22:54:11.632Z,1.2
2022-08-26T22:56:11.654Z,1.3
2022-08-26T22:58:11.761Z,1.1
2022-08-26T23:00:11.914Z,1.3
2022-08-26T23:02:12.063Z,1.4
2022-08-26T23:04:11.785Z,1.2
2022-08-26T23:06:15.137Z,1.3
2022-08-26T23:08:12.986Z,1.1
2022-08-26T23:10:13.719Z,1.2
2022-08-26T23:12:12.915Z,1.1
2022-08-26T23:14:12.517Z,1.3
2022-08-26T23:16:13.905Z,1.2
2022-08-26T23:18:12.142Z,1.0
2022-08-26T23:20:13.216Z,1.0
2022-08-26T23:22:11.567Z,1.3
2022-08-26T23:24:13.343Z,1.0
2022-08-26T23:26:17.383Z,1.1
2022-08-26T23:28:12.881Z,1.1
2022-08-26T23:30:11.706Z,1.0
2022-08-26T23:32:11.898Z,1.0
2022-08-26T23:34:12.264Z,1.2
2022-08-26T23:36:17.998Z,1.2
2022-08-26T23:38:13.406Z,1.1
2022-08-26T23:40:15.060Z,1.1
2022-08-26T23:42:12.291Z,1.1
2022-08-26T23:44:12.803Z,1.0
2022-08-26T23:46:12.156Z,1.2
2022-08-26T23:48:13.949Z,1.2
2022-08-26T23:50:11.773Z,1.1
2022-08-26T23:52:12.570Z,1.1
2022-08-26T23:54:12.191Z,1.2
2022-08-26T23:56:11.751Z,1.1
2022-08-26T23:58:12.327Z,1.2
